createdAt,value
2022-09-03T00:02:25.869Z,20.10
2022-09-03T00:05:05.214Z,20.10
2022-09-03T00:07:41.731Z,20.10
2022-09-03T00:10:17.261Z,20.10
2022-09-03T00:12:48.860Z,20.10
2022-09-03T00:15:21.203Z,20.10
2022-09-03T00:17:54.749Z,20.10
2022-09-03T00:20:29.546Z,20.10
2022-09-03T00:23:01.702Z,20.10
2022-09-03T00:25:38.763Z,20.10
2022-09-03T00:28:18.801Z,20.10
2022-09-03T00:30:57.189Z,20.00
2022-09-03T00:33:29.369Z,20.00
2022-09-03T00:36:09.572Z,20.00
2022-09-03T00:38:39.250Z,20.00
2022-09-03T00:41:18.418Z,19.90
2022-09-03T00:44:10.381Z,19.90
2022-09-03T00:46:48.170Z,19.90
2022-09-03T00:49:41.475Z,19.80
2022-09-03T00:52:23.309Z,19.80
2022-09-03T00:55:01.488Z,19.70
2022-09-03T00:57:47.557Z,19.70
2022-09-03T01:00:20.122Z,19.70
2022-09-03T01:03:08.631Z,19.60
2022-09-03T01:05:51.408Z,19.60
2022-09-03T01:08:37.029Z,19.60
2022-09-03T01:11:23.170Z,19.60
2022-09-03T01:13:59.154Z,19.50
2022-09-03T01:16:37.730Z,19.50
2022-09-03T01:19:27.738Z,19.50
2022-09-03T01:22:21.084Z,19.40
2022-09-03T01:25:14.024Z,19.40
2022-09-03T01:28:03.087Z,19.40
2022-09-03T01:30:35.930Z,19.40
2022-09-03T01:33:15.246Z,19.30
2022-09-03T01:35:48.950Z,19.30
2022-09-03T01:38:30.738Z,19.30
2022-09-03T01:41:30.703Z,19.30
2022-09-03T01:44:11.728Z,19.20
2022-09-03T01:46:42.327Z,19.20
2022-09-03T01:49:22.750Z,19.20
2022-09-03T01:52:00.116Z,19.20
2022-09-03T01:54:50.489Z,19.10
2022-09-03T01:57:48.647Z,19.10
2022-09-03T02:00:20.611Z,19.10
2022-09-03T02:02:52.097Z,19.10
2022-09-03T02:05:24.162Z,19.10
2022-09-03T02:08:00.200Z,19.10
2022-09-03T02:10:33.560Z,19.10
2022-09-03T02:13:07.852Z,19.10
2022-09-03T02:15:40.294Z,19.10
2022-09-03T02:18:17.161Z,19.10
2022-09-03T02:20:47.915Z,19.10
2022-09-03T02:23:16.938Z,19.10
2022-09-03T02:25:52.791Z,19.10
2022-09-03T02:28:21.094Z,19.10
2022-09-03T02:30:50.858Z,19.10
2022-09-03T02:33:19.183Z,19.20
2022-09-03T02:35:47.641Z,19.20
2022-09-03T02:38:22.389Z,19.20
2022-09-03T02:40:50.631Z,19.20
2022-09-03T02:43:26.110Z,19.20
2022-09-03T02:46:02.800Z,19.20
2022-09-03T02:48:31.294Z,19.30
2022-09-03T02:50:59.484Z,19.30
2022-09-03T02:53:29.007Z,19.30
2022-09-03T02:56:00.985Z,19.30
2022-09-03T02:58:31.515Z,19.30
2022-09-03T03:01:01.341Z,19.30
2022-09-03T03:03:29.978Z,19.40
2022-09-03T03:06:01.973Z,19.40
2022-09-03T03:08:32.275Z,19.40
2022-09-03T03:11:01.003Z,19.40
2022-09-03T03:13:30.109Z,19.40
2022-09-03T03:16:01.549Z,19.30
2022-09-03T03:18:31.261Z,19.30
2022-09-03T03:21:05.605Z,19.30
2022-09-03T03:23:33.932Z,19.30
2022-09-03T03:26:03.601Z,19.30
2022-09-03T03:28:34.335Z,19.30
2022-09-03T03:31:08.740Z,19.20
2022-09-03T03:33:37.158Z,19.20
2022-09-03T03:36:08.036Z,19.20
2022-09-03T03:38:36.887Z,19.20
2022-09-03T03:41:10.113Z,19.10
2022-09-03T03:43:38.348Z,19.10
2022-09-03T03:46:08.610Z,19.10
2022-09-03T03:48:36.843Z,19.10
2022-09-03T03:51:08.150Z,19.00
2022-09-03T03:53:38.243Z,19.00
2022-09-03T03:56:09.889Z,18.90
2022-09-03T03:58:39.062Z,18.90
2022-09-03T04:01:11.053Z,18.90
2022-09-03T04:03:39.656Z,18.80
2022-09-03T04:06:09.648Z,18.70
2022-09-03T04:08:41.140Z,18.70
2022-09-03T04:11:11.612Z,18.60
2022-09-03T04:13:42.546Z,18.50
2022-09-03T04:16:14.205Z,18.50
2022-09-03T04:18:43.279Z,18.40
2022-09-03T04:21:14.147Z,18.40
2022-09-03T04:23:44.972Z,18.30
2022-09-03T04:26:16.303Z,18.20
2022-09-03T04:28:45.598Z,18.20
2022-09-03T04:31:17.725Z,18.10
2022-09-03T04:33:46.778Z,18.10
2022-09-03T04:36:17.734Z,18.00
2022-09-03T04:38:47.766Z,18.00
2022-09-03T04:41:18.393Z,17.90
2022-09-03T04:43:49.374Z,17.90
2022-09-03T04:46:23.438Z,17.70
2022-09-03T04:48:54.042Z,17.70
2022-09-03T04:51:24.966Z,17.70
2022-09-03T04:53:58.970Z,17.70
2022-09-03T04:56:30.116Z,17.70
2022-09-03T04:59:01.328Z,17.60
2022-09-03T05:01:34.523Z,17.60
2022-09-03T05:04:03.845Z,17.60
2022-09-03T05:06:33.376Z,17.60
2022-09-03T05:09:02.431Z,17.60
2022-09-03T05:11:31.154Z,17.60
2022-09-03T05:14:01.179Z,17.60
2022-09-03T05:16:33.564Z,17.70
2022-09-03T05:19:05.993Z,17.80
2022-09-03T05:21:36.015Z,17.90
2022-09-03T05:24:05.563Z,18.10
2022-09-03T05:26:38.172Z,18.30
2022-09-03T05:29:08.574Z,18.30
2022-09-03T05:31:40.543Z,18.30
2022-09-03T05:34:10.157Z,18.20
2022-09-03T05:36:42.253Z,18.20
2022-09-03T05:39:10.466Z,18.20
2022-09-03T05:41:38.708Z,18.10
2022-09-03T05:44:06.922Z,18.10
2022-09-03T05:46:38.308Z,18.00
2022-09-03T05:49:08.056Z,18.00
2022-09-03T05:51:39.447Z,18.00
2022-09-03T05:54:08.717Z,18.00
2022-09-03T05:56:41.086Z,18.00
2022-09-03T05:59:11.801Z,18.00
2022-09-03T06:01:50.983Z,18.00
2022-09-03T06:04:21.114Z,18.10
2022-09-03T06:06:50.034Z,18.20
2022-09-03T06:09:20.074Z,18.20
2022-09-03T06:11:50.399Z,18.30
2022-09-03T06:14:20.752Z,18.50
2022-09-03T06:16:52.939Z,18.60
2022-09-03T06:19:21.627Z,18.70
2022-09-03T06:21:50.107Z,18.80
2022-09-03T06:24:23.246Z,18.90
2022-09-03T06:26:55.007Z,19.00
2022-09-03T06:29:23.368Z,19.10
2022-09-03T06:31:53.107Z,19.20
2022-09-03T06:34:22.706Z,19.30
2022-09-03T06:36:51.261Z,19.50
2022-09-03T06:39:22.994Z,19.60
2022-09-03T06:41:52.369Z,19.70
2022-09-03T06:44:20.707Z,19.80
2022-09-03T06:46:48.981Z,19.90
2022-09-03T06:49:19.798Z,20.00
2022-09-03T06:51:48.111Z,20.10
2022-09-03T06:54:16.758Z,20.20
2022-09-03T06:56:45.372Z,20.30
2022-09-03T06:59:16.900Z,20.30
2022-09-03T07:01:46.671Z,20.40
2022-09-03T07:04:20.152Z,20.50
2022-09-03T07:06:49.219Z,20.60
2022-09-03T07:09:19.309Z,20.60
2022-09-03T07:11:49.165Z,20.70
2022-09-03T07:14:19.701Z,20.70
2022-09-03T07:16:49.424Z,20.80
2022-09-03T07:19:19.756Z,20.80
2022-09-03T07:21:50.813Z,20.90
2022-09-03T07:24:22.512Z,21.00
2022-09-03T07:27:15.045Z,21.10
2022-09-03T07:29:43.495Z,21.20
2022-09-03T07:32:11.800Z,21.30
2022-09-03T07:34:41.425Z,21.40
2022-09-03T07:37:09.758Z,21.50
2022-09-03T07:39:38.403Z,21.70
2022-09-03T07:42:08.909Z,21.90
2022-09-03T07:44:37.123Z,22.10
2022-09-03T07:47:06.439Z,22.30
2022-09-03T07:49:34.632Z,22.40
2022-09-03T07:52:04.861Z,22.60
2022-09-03T07:54:33.350Z,22.70
2022-09-03T07:57:02.327Z,22.90
2022-09-03T07:59:31.262Z,23.10
2022-09-03T08:01:59.521Z,23.30
2022-09-03T08:04:27.816Z,23.50
2022-09-03T08:06:56.995Z,23.70
2022-09-03T08:09:26.610Z,23.90
2022-09-03T08:11:54.831Z,24.00
2022-09-03T08:14:23.057Z,24.20
2022-09-03T08:16:52.025Z,24.30
2022-09-03T08:19:20.545Z,24.40
2022-09-03T08:21:48.814Z,24.60
2022-09-03T08:24:20.958Z,24.90
2022-09-03T08:26:52.604Z,25.20
2022-09-03T08:29:23.452Z,25.40
2022-09-03T08:31:52.069Z,25.70
2022-09-03T08:34:21.349Z,25.90
2022-09-03T08:36:50.314Z,26.10
2022-09-03T08:39:19.562Z,26.20
2022-09-03T08:42:21.648Z,26.20
2022-09-03T08:44:56.073Z,26.40
2022-09-03T08:47:29.817Z,26.50
2022-09-03T08:50:02.450Z,26.60
2022-09-03T08:52:35.114Z,26.90
2022-09-03T08:55:22.218Z,27.00
2022-09-03T08:57:57.941Z,27.20
2022-09-03T09:00:26.445Z,27.40
2022-09-03T09:03:17.354Z,27.50
2022-09-03T09:05:55.562Z,27.60
2022-09-03T09:08:34.520Z,27.70
2022-09-03T09:11:16.107Z,27.80
2022-09-03T09:13:56.959Z,28.00
2022-09-03T09:16:39.479Z,28.10
2022-09-03T09:19:26.015Z,28.20
2022-09-03T09:22:00.482Z,28.40
2022-09-03T09:24:37.209Z,28.60
2022-09-03T09:27:07.705Z,28.70
2022-09-03T09:29:39.763Z,28.70
2022-09-03T09:32:11.993Z,28.60
2022-09-03T09:34:41.280Z,28.70
2022-09-03T09:37:13.462Z,28.90
2022-09-03T09:39:43.320Z,29.00
2022-09-03T09:42:13.371Z,29.00
2022-09-03T09:44:44.665Z,29.10
2022-09-03T09:47:18.088Z,29.10
2022-09-03T09:49:55.499Z,29.20
2022-09-03T09:52:28.477Z,29.30
2022-09-03T09:55:10.596Z,29.30
2022-09-03T09:57:40.358Z,29.30
2022-09-03T10:00:13.871Z,29.10
2022-09-03T10:02:48.966Z,29.00
2022-09-03T10:05:26.111Z,29.00
2022-09-03T10:07:59.429Z,29.10
2022-09-03T10:10:29.064Z,29.20
2022-09-03T10:13:02.957Z,29.20
2022-09-03T10:15:40.327Z,29.20
2022-09-03T10:18:17.714Z,29.30
2022-09-03T10:20:52.611Z,29.50
2022-09-03T10:23:28.108Z,29.70
2022-09-03T10:26:07.434Z,30.00
2022-09-03T10:28:41.238Z,30.20
2022-09-03T10:31:35.030Z,30.40
2022-09-03T10:34:10.830Z,30.60
2022-09-03T10:36:46.995Z,30.70
2022-09-03T10:39:23.596Z,30.80
2022-09-03T10:42:09.572Z,30.80
2022-09-03T10:44:57.554Z,30.90
2022-09-03T10:48:13.541Z,31.10
2022-09-03T10:50:49.830Z,31.20
2022-09-03T10:53:41.098Z,31.20
2022-09-03T10:56:17.302Z,31.30
2022-09-03T10:59:10.673Z,31.30
2022-09-03T11:01:51.514Z,31.30
2022-09-03T11:04:30.404Z,31.30
2022-09-03T11:07:09.902Z,31.40
2022-09-03T11:09:42.991Z,31.50
2022-09-03T11:12:15.172Z,31.70
2022-09-03T11:14:48.536Z,31.70
2022-09-03T11:17:25.395Z,31.80
2022-09-03T11:20:09.854Z,31.90
2022-09-03T11:22:39.757Z,31.90
2022-09-03T11:25:12.499Z,31.90
2022-09-03T11:27:57.845Z,31.90
2022-09-03T11:30:33.187Z,31.90
2022-09-03T11:33:07.984Z,31.80
2022-09-03T11:35:43.185Z,31.70
2022-09-03T11:38:27.265Z,31.70
2022-09-03T11:41:03.158Z,31.70
2022-09-03T11:43:36.043Z,31.80
2022-09-03T11:46:11.953Z,31.80
2022-09-03T11:48:44.884Z,31.80
2022-09-03T11:51:32.992Z,31.70
2022-09-03T11:54:03.316Z,31.80
2022-09-03T11:56:33.556Z,31.80
2022-09-03T11:59:19.716Z,31.90
2022-09-03T12:01:54.101Z,31.90
2022-09-03T12:04:28.263Z,31.90
2022-09-03T12:07:23.769Z,31.70
2022-09-03T12:10:05.873Z,31.70
2022-09-03T12:12:51.109Z,31.70
2022-09-03T12:15:38.784Z,31.60
2022-09-03T12:18:22.625Z,31.60
2022-09-03T12:21:03.600Z,31.60
2022-09-03T12:23:36.094Z,31.60
2022-09-03T12:26:09.332Z,31.50
2022-09-03T12:28:44.370Z,31.50
2022-09-03T12:31:24.677Z,31.40
2022-09-03T12:33:55.645Z,31.50
2022-09-03T12:36:24.436Z,31.60
2022-09-03T12:39:11.386Z,31.60
2022-09-03T12:41:47.953Z,31.60
2022-09-03T12:44:20.486Z,31.60
2022-09-03T12:47:32.609Z,31.70
2022-09-03T12:49:39.506Z,31.70
2022-09-03T12:52:19.962Z,31.60
2022-09-03T12:54:55.961Z,31.60
2022-09-03T12:57:30.060Z,31.50
2022-09-03T13:00:05.430Z,31.30
2022-09-03T13:02:42.325Z,31.20
2022-09-03T13:05:18.393Z,31.20
2022-09-03T13:07:53.054Z,31.20
2022-09-03T13:10:29.714Z,31.20
2022-09-03T13:13:02.711Z,31.20
2022-09-03T13:15:31.905Z,31.20
2022-09-03T13:18:22.032Z,31.20
2022-09-03T13:21:06.962Z,31.20
2022-09-03T13:24:04.594Z,31.20
2022-09-03T13:26:49.498Z,31.20
2022-09-03T13:29:47.121Z,31.20
2022-09-03T13:32:29.795Z,31.20
2022-09-03T13:35:07.609Z,31.20
2022-09-03T13:37:40.198Z,31.20
2022-09-03T13:40:20.017Z,31.20
2022-09-03T13:42:55.843Z,31.20
2022-09-03T13:45:33.760Z,31.10
2022-09-03T13:48:28.198Z,31.20
2022-09-03T13:51:08.118Z,31.20
2022-09-03T13:53:50.836Z,31.20
2022-09-03T13:56:31.076Z,31.20
2022-09-03T13:59:08.677Z,31.20
2022-09-03T14:01:59.703Z,31.20
2022-09-03T14:04:39.363Z,31.20
2022-09-03T14:07:15.050Z,31.30
2022-09-03T14:09:56.003Z,31.30
2022-09-03T14:12:42.425Z,31.30
2022-09-03T14:15:20.678Z,31.30
2022-09-03T14:17:58.782Z,31.30
2022-09-03T14:20:31.202Z,31.30
2022-09-03T14:23:09.719Z,31.30
2022-09-03T14:25:43.748Z,31.30
2022-09-03T14:28:17.029Z,31.30
2022-09-03T14:30:55.687Z,31.10
2022-09-03T14:33:33.165Z,30.90
2022-09-03T14:36:16.329Z,30.80
2022-09-03T14:39:04.857Z,30.80
2022-09-03T14:42:05.040Z,30.80
2022-09-03T14:45:27.997Z,30.70
2022-09-03T14:48:18.606Z,30.70
2022-09-03T14:51:05.695Z,30.70
2022-09-03T14:54:25.107Z,30.60
2022-09-03T14:57:13.052Z,30.50
2022-09-03T15:00:04.978Z,30.40
2022-09-03T15:03:17.610Z,30.40
2022-09-03T15:06:02.987Z,30.50
2022-09-03T15:08:49.492Z,30.40
2022-09-03T15:11:22.723Z,30.40
2022-09-03T15:13:56.854Z,30.40
2022-09-03T15:16:50.583Z,30.30
2022-09-03T15:19:48.294Z,30.20
2022-09-03T15:22:33.307Z,30.30
2022-09-03T15:25:16.851Z,30.30
2022-09-03T15:28:00.381Z,30.30
2022-09-03T15:30:38.113Z,30.20
2022-09-03T15:33:24.693Z,30.20
2022-09-03T15:36:20.297Z,30.20
2022-09-03T15:38:56.537Z,30.20
2022-09-03T15:41:36.772Z,30.20
2022-09-03T15:44:10.497Z,30.30
2022-09-03T15:46:54.610Z,30.30
2022-09-03T15:49:35.996Z,30.30
2022-09-03T15:52:30.395Z,30.30
2022-09-03T15:55:08.919Z,30.30
2022-09-03T15:57:44.242Z,30.20
2022-09-03T16:00:14.928Z,30.30
2022-09-03T16:03:00.094Z,30.30
2022-09-03T16:05:43.554Z,30.20
2022-09-03T16:08:23.953Z,30.20
2022-09-03T16:11:08.019Z,30.20
2022-09-03T16:14:02.472Z,30.10
2022-09-03T16:16:48.944Z,30.00
2022-09-03T16:19:23.482Z,30.00
2022-09-03T16:22:00.803Z,30.00
2022-09-03T16:24:39.959Z,30.00
2022-09-03T16:27:17.596Z,29.90
2022-09-03T16:29:59.349Z,29.90
2022-09-03T16:32:46.428Z,29.80
2022-09-03T16:35:28.146Z,29.80
2022-09-03T16:38:18.353Z,29.80
2022-09-03T16:40:54.073Z,29.80
2022-09-03T16:43:41.089Z,29.70
2022-09-03T16:46:25.086Z,29.70
2022-09-03T16:49:10.870Z,29.60
2022-09-03T16:51:49.011Z,29.50
2022-09-03T16:54:44.586Z,29.40
2022-09-03T16:57:44.874Z,29.40
2022-09-03T17:00:15.379Z,29.40
2022-09-03T17:03:35.771Z,29.30
2022-09-03T17:06:23.366Z,29.20
2022-09-03T17:09:02.967Z,29.20
2022-09-03T17:11:48.912Z,29.10
2022-09-03T17:15:10.989Z,29.00
2022-09-03T17:18:18.576Z,29.00
2022-09-03T17:21:02.366Z,28.90
2022-09-03T17:24:07.452Z,28.90
2022-09-03T17:26:48.686Z,28.80
2022-09-03T17:29:40.396Z,28.70
2022-09-03T17:32:21.143Z,28.70
2022-09-03T17:35:05.793Z,28.60
2022-09-03T17:37:55.611Z,28.60
2022-09-03T17:40:39.128Z,28.50
2022-09-03T17:43:21.379Z,28.40
2022-09-03T17:46:05.011Z,28.30
2022-09-03T17:48:51.305Z,28.20
2022-09-03T17:51:35.362Z,28.20
2022-09-03T17:54:11.509Z,28.10
2022-09-03T17:56:52.398Z,28.00
2022-09-03T17:59:36.225Z,27.90
2022-09-03T18:02:27.806Z,27.80
2022-09-03T18:05:02.441Z,27.80
2022-09-03T18:07:41.145Z,27.70
2022-09-03T18:10:24.778Z,27.60
2022-09-03T18:13:05.486Z,27.50
2022-09-03T18:15:46.824Z,27.40
2022-09-03T18:18:27.012Z,27.20
2022-09-03T18:21:30.685Z,27.10
2022-09-03T18:24:24.927Z,27.00
2022-09-03T18:27:17.892Z,26.90
2022-09-03T18:30:08.856Z,26.80
2022-09-03T18:32:54.398Z,26.70
2022-09-03T18:35:44.561Z,26.70
2022-09-03T18:38:29.988Z,26.60
2022-09-03T18:41:42.861Z,26.50
2022-09-03T18:44:43.036Z,26.50
2022-09-03T18:48:02.979Z,26.40
2022-09-03T18:51:02.240Z,26.30
2022-09-03T18:53:56.978Z,26.20
2022-09-03T18:56:53.677Z,26.20
2022-09-03T19:00:17.442Z,26.10
2022-09-03T19:03:30.761Z,26.00
2022-09-03T19:06:34.024Z,25.90
2022-09-03T19:09:29.673Z,25.80
2022-09-03T19:12:32.606Z,25.80
2022-09-03T19:15:26.464Z,25.70
2022-09-03T19:18:28.148Z,25.60
2022-09-03T19:21:27.840Z,25.40
2022-09-03T19:24:20.986Z,25.30
2022-09-03T19:27:50.567Z,25.20
2022-09-03T19:30:28.817Z,25.10
2022-09-03T19:33:29.918Z,25.00
2022-09-03T19:36:27.326Z,24.90
2022-09-03T19:39:35.939Z,24.90
2022-09-03T19:42:30.430Z,24.90
2022-09-03T19:45:28.691Z,24.90
2022-09-03T19:48:27.808Z,24.80
2022-09-03T19:51:26.953Z,24.80
2022-09-03T19:54:14.893Z,24.80
2022-09-03T19:57:00.975Z,24.70
2022-09-03T19:59:52.725Z,24.70
2022-09-03T20:02:38.471Z,24.60
2022-09-03T20:05:29.543Z,24.50
2022-09-03T20:08:18.220Z,24.50
2022-09-03T20:10:49.261Z,24.40
2022-09-03T20:13:19.867Z,24.40
2022-09-03T20:15:59.707Z,24.30
2022-09-03T20:18:41.974Z,24.30
2022-09-03T20:21:19.763Z,24.20
2022-09-03T20:24:00.013Z,24.20
2022-09-03T20:26:42.059Z,24.10
2022-09-03T20:29:56.152Z,24.00
2022-09-03T20:32:57.141Z,23.90
2022-09-03T20:35:38.477Z,23.90
2022-09-03T20:38:34.406Z,23.80
2022-09-03T20:41:16.801Z,23.80
2022-09-03T20:44:09.861Z,23.70
2022-09-03T20:46:57.551Z,23.70
2022-09-03T20:49:38.539Z,23.60
2022-09-03T20:52:13.865Z,23.60
2022-09-03T20:54:50.415Z,23.50
2022-09-03T20:57:41.736Z,23.50
2022-09-03T21:00:15.150Z,23.40
2022-09-03T21:03:19.864Z,23.40
2022-09-03T21:06:05.213Z,23.30
2022-09-03T21:08:55.381Z,23.30
2022-09-03T21:11:34.342Z,23.20
2022-09-03T21:14:21.660Z,23.20
2022-09-03T21:17:04.593Z,23.10
2022-09-03T21:19:55.587Z,23.00
2022-09-03T21:22:35.043Z,22.90
2022-09-03T21:25:07.961Z,22.90
2022-09-03T21:27:46.552Z,22.90
2022-09-03T21:30:19.392Z,22.80
2022-09-03T21:32:52.786Z,22.80
2022-09-03T21:35:29.009Z,22.70
2022-09-03T21:38:04.098Z,22.60
2022-09-03T21:40:35.821Z,22.60
2022-09-03T21:43:13.200Z,22.50
2022-09-03T21:45:52.699Z,22.50
2022-09-03T21:48:26.662Z,22.40
2022-09-03T21:50:57.980Z,22.40
2022-09-03T21:53:32.659Z,22.40
2022-09-03T21:56:40.573Z,22.30
2022-09-03T21:59:21.174Z,22.20
2022-09-03T22:02:04.179Z,22.20
2022-09-03T22:04:32.770Z,22.20
2022-09-03T22:07:13.786Z,22.10
2022-09-03T22:09:48.011Z,22.10
2022-09-03T22:12:22.012Z,22.10
2022-09-03T22:14:55.670Z,22.10
2022-09-03T22:17:34.469Z,22.10
2022-09-03T22:20:05.502Z,22.00
2022-09-03T22:22:44.060Z,22.00
2022-09-03T22:25:18.679Z,22.00
2022-09-03T22:28:00.688Z,21.90
2022-09-03T22:30:37.581Z,21.80
2022-09-03T22:33:16.034Z,21.80
2022-09-03T22:35:59.458Z,21.70
2022-09-03T22:38:58.321Z,21.70
2022-09-03T22:41:54.280Z,21.60
2022-09-03T22:44:42.071Z,21.60
2022-09-03T22:47:26.190Z,21.50
2022-09-03T22:50:03.603Z,21.50
2022-09-03T22:52:41.895Z,21.50
2022-09-03T22:55:18.416Z,21.50
2022-09-03T22:57:56.107Z,21.40
2022-09-03T23:00:24.554Z,21.40
2022-09-03T23:03:06.007Z,21.40
2022-09-03T23:05:45.759Z,21.40
2022-09-03T23:08:23.341Z,21.30
2022-09-03T23:11:01.082Z,21.30
2022-09-03T23:13:35.123Z,21.30
2022-09-03T23:16:13.026Z,21.30
2022-09-03T23:18:44.458Z,21.30
2022-09-03T23:21:23.153Z,21.20
2022-09-03T23:23:58.255Z,21.20
2022-09-03T23:26:36.846Z,21.20
2022-09-03T23:29:13.461Z,21.20
2022-09-03T23:31:41.715Z,21.20
2022-09-03T23:34:12.440Z,21.20
2022-09-03T23:37:32.567Z,21.10
2022-09-03T23:40:29.116Z,21.10
2022-09-03T23:43:38.474Z,21.10
2022-09-03T23:46:17.387Z,21.10
2022-09-03T23:49:06.979Z,21.00
2022-09-03T23:51:53.626Z,21.00
2022-09-03T23:54:31.074Z,20.90
2022-09-03T23:57:10.500Z,21.00
2022-09-03T23:59:58.170Z,21.00
